Blue, Arizona
Current Conditions -  °F | °C
As of 9:51 PM on Friday 19 Dec 2014 (Local Time) from KSAD Reporting Station
Clear Clear  
Wind Chill: 35°   Ceiling: Unl
Heat Index: 39°   Visibility: 10mi
Dew Point: 36°   Wind: 6mph
Humidity: 89%   Direction: 350°N
Pressure: 30.18"   Gusts: NA
Location:  33.6°N, 109.11°W
Report Text: KSAD 200451Z AUTO 35005KT 10SM CLR 04/02 A3018 RMK AO2 SLP219 T00390022
Loading
Personal Weather Stations






























Interactive Weather Map New forecast layout! Learn more

10-Day Weather Forecast

Advertisements
Track Severe Weather on mobile